createdAt,value
2023-01-05T00:01:02.867Z,59.10
2023-01-05T00:03:30.156Z,64.15
2023-01-05T00:06:17.699Z,53.85
2023-01-05T00:08:45.442Z,57.53
2023-01-05T00:11:35.637Z,56.05
2023-01-05T00:14:22.115Z,51.03
2023-01-05T00:17:08.443Z,38.38
2023-01-05T00:19:55.063Z,58.53
2023-01-05T00:22:32.565Z,44.42
2023-01-05T00:25:12.613Z,49.53
2023-01-05T00:27:41.139Z,87.22
2023-01-05T00:30:08.816Z,50.80
2023-01-05T00:32:36.091Z,54.03
2023-01-05T00:35:03.639Z,61.72
2023-01-05T00:37:34.894Z,64.35
2023-01-05T00:40:02.107Z,53.35
2023-01-05T00:42:29.313Z,63.60
2023-01-05T00:44:56.486Z,41.72
2023-01-05T00:47:23.702Z,52.90
2023-01-05T00:49:50.900Z,45.78
2023-01-05T00:52:18.123Z,62.83
2023-01-05T00:54:45.387Z,62.88
2023-01-05T00:57:12.921Z,59.28
2023-01-05T00:59:40.171Z,44.47
2023-01-05T01:02:07.853Z,55.55
2023-01-05T01:04:35.463Z,53.97
2023-01-05T01:07:03.343Z,70.82
2023-01-05T01:09:30.682Z,48.33
2023-01-05T01:11:57.937Z,57.53
2023-01-05T01:14:25.519Z,49.95
2023-01-05T01:16:52.813Z,65.35
2023-01-05T01:19:21.893Z,68.93
2023-01-05T01:21:49.650Z,63.97
2023-01-05T01:24:18.763Z,53.22
2023-01-05T01:26:46.268Z,78.18
2023-01-05T01:29:13.723Z,71.10
2023-01-05T01:31:40.982Z,53.67
2023-01-05T01:34:08.224Z,59.63
2023-01-05T01:36:35.553Z,56.85
2023-01-05T01:39:02.752Z,70.65
2023-01-05T01:41:30.069Z,75.63
2023-01-05T01:43:57.993Z,47.78
2023-01-05T01:46:26.103Z,58.10
2023-01-05T01:48:55.260Z,50.83
2023-01-05T01:51:33.749Z,56.47
2023-01-05T01:54:03.170Z,63.97
2023-01-05T01:56:33.569Z,59.75
2023-01-05T01:59:00.981Z,59.25
2023-01-05T02:01:28.276Z,63.38
2023-01-05T02:03:56.308Z,54.28
2023-01-05T02:06:23.848Z,67.38
2023-01-05T02:08:51.260Z,59.83
2023-01-05T02:11:33.448Z,63.33
2023-01-05T02:14:19.605Z,62.50
2023-01-05T02:16:49.552Z,51.67
2023-01-05T02:19:32.038Z,67.85
2023-01-05T02:22:09.097Z,51.47
2023-01-05T02:24:36.314Z,59.33
2023-01-05T02:27:03.479Z,69.32
2023-01-05T02:29:51.301Z,81.78
2023-01-05T02:32:21.338Z,65.40
2023-01-05T02:35:08.823Z,58.17
2023-01-05T02:37:36.111Z,70.20
2023-01-05T02:40:09.941Z,62.03
2023-01-05T02:42:38.047Z,44.60
2023-01-05T02:45:06.337Z,71.22
2023-01-05T02:47:37.877Z,88.75
2023-01-05T02:50:23.985Z,77.50
2023-01-05T02:52:54.639Z,80.70
2023-01-05T02:55:24.997Z,81.70
2023-01-05T02:57:58.082Z,62.22
2023-01-05T03:00:27.511Z,76.28
2023-01-05T03:02:58.211Z,80.80
2023-01-05T03:05:28.278Z,57.00
2023-01-05T03:08:06.884Z,61.92
2023-01-05T03:10:56.999Z,67.22
2023-01-05T03:13:43.269Z,72.85
2023-01-05T03:16:12.566Z,63.08
2023-01-05T03:18:59.846Z,68.25
2023-01-05T03:21:28.169Z,56.20
2023-01-05T03:24:16.399Z,52.63
2023-01-05T03:27:02.751Z,66.57
2023-01-05T03:29:48.664Z,65.30
2023-01-05T03:32:41.921Z,73.18
2023-01-05T03:35:38.649Z,72.43
2023-01-05T03:38:17.792Z,63.85
2023-01-05T03:40:45.973Z,60.95
2023-01-05T03:43:13.493Z,64.20
2023-01-05T03:45:45.436Z,65.53
2023-01-05T03:48:12.912Z,79.13
2023-01-05T03:50:40.143Z,62.50
2023-01-05T03:53:08.124Z,50.80
2023-01-05T03:55:35.392Z,68.25
2023-01-05T03:58:02.653Z,53.45
2023-01-05T04:00:30.064Z,43.45
2023-01-05T04:02:57.485Z,70.65
2023-01-05T04:05:24.880Z,84.25
2023-01-05T04:07:52.203Z,64.57
2023-01-05T04:10:19.436Z,78.15
2023-01-05T04:12:48.201Z,61.08
2023-01-05T04:15:15.497Z,63.70
2023-01-05T04:17:42.750Z,72.85
2023-01-05T04:20:10.270Z,68.13
2023-01-05T04:22:37.487Z,64.43
2023-01-05T04:25:04.815Z,68.45
2023-01-05T04:27:32.141Z,62.65
2023-01-05T04:29:59.516Z,67.70
2023-01-05T04:32:26.755Z,62.55
2023-01-05T04:34:54.019Z,54.13
2023-01-05T04:37:21.231Z,65.40
2023-01-05T04:39:48.444Z,62.05
2023-01-05T04:42:15.706Z,57.95
2023-01-05T04:44:42.967Z,70.55
2023-01-05T04:47:10.568Z,57.70
2023-01-05T04:49:37.811Z,52.90
2023-01-05T04:52:05.124Z,58.90
2023-01-05T04:54:32.388Z,44.13
2023-01-05T04:56:59.751Z,55.85
2023-01-05T04:59:27.868Z,61.70
2023-01-05T05:01:55.134Z,84.85
2023-01-05T05:04:22.480Z,69.63
2023-01-05T05:06:50.049Z,62.38
2023-01-05T05:09:17.277Z,62.28
2023-01-05T05:11:44.493Z,70.00
2023-01-05T05:14:11.735Z,67.55
2023-01-05T05:16:39.016Z,58.42
2023-01-05T05:19:06.230Z,67.15
2023-01-05T05:21:33.446Z,69.88
2023-01-05T05:24:00.687Z,56.22
2023-01-05T05:26:27.908Z,39.33
2023-01-05T05:28:55.088Z,67.90
2023-01-05T05:31:22.670Z,79.57
2023-01-05T05:33:50.026Z,61.78
2023-01-05T05:36:18.004Z,64.25
2023-01-05T05:38:45.463Z,66.68
2023-01-05T05:41:12.664Z,66.30
2023-01-05T05:43:39.964Z,72.57
2023-01-05T05:46:07.385Z,66.45
2023-01-05T05:48:34.697Z,65.88
2023-01-05T05:51:01.959Z,64.28
2023-01-05T05:53:29.236Z,59.45
2023-01-05T05:55:56.481Z,44.78
2023-01-05T05:58:23.962Z,62.40
2023-01-05T06:00:51.255Z,68.93
2023-01-05T06:03:18.536Z,61.22
2023-01-05T06:05:45.889Z,53.60
2023-01-05T06:08:13.180Z,58.47
2023-01-05T06:10:40.411Z,62.80
2023-01-05T06:13:08.002Z,69.75
2023-01-05T06:15:35.260Z,65.82
2023-01-05T06:18:02.576Z,70.78
2023-01-05T06:20:29.786Z,62.25
2023-01-05T06:22:57.049Z,50.90
2023-01-05T06:25:24.328Z,71.00
2023-01-05T06:27:51.545Z,52.55
2023-01-05T06:30:18.956Z,58.17
2023-01-05T06:32:46.219Z,63.42
2023-01-05T06:35:13.612Z,71.65
2023-01-05T06:37:41.030Z,56.28
2023-01-05T06:40:09.727Z,53.97
2023-01-05T06:42:37.022Z,50.28
2023-01-05T06:45:04.651Z,67.57
2023-01-05T06:47:31.923Z,58.58
2023-01-05T06:49:59.187Z,61.97
2023-01-05T06:52:26.417Z,48.30
2023-01-05T06:54:53.656Z,59.88
2023-01-05T06:57:20.990Z,62.20
2023-01-05T06:59:48.599Z,58.40
2023-01-05T07:02:16.660Z,49.15
2023-01-05T07:04:44.036Z,56.47
2023-01-05T07:07:14.699Z,51.42
2023-01-05T07:09:42.175Z,53.13
2023-01-05T07:12:09.491Z,61.45
2023-01-05T07:14:37.179Z,43.25
2023-01-05T07:17:05.220Z,65.10
2023-01-05T07:19:32.477Z,55.67
2023-01-05T07:21:59.697Z,44.00
2023-01-05T07:24:26.927Z,40.45
2023-01-05T07:26:54.171Z,38.83
2023-01-05T07:29:21.380Z,40.75
2023-01-05T07:31:52.159Z,28.70
2023-01-05T07:34:20.403Z,39.42
2023-01-05T07:36:47.651Z,41.20
2023-01-05T07:39:15.037Z,35.55
2023-01-05T07:41:42.554Z,38.15
2023-01-05T07:44:09.877Z,36.97
2023-01-05T07:46:37.322Z,21.67
2023-01-05T07:49:04.649Z,19.27
2023-01-05T07:51:31.849Z,18.20
2023-01-05T07:53:59.097Z,11.27
2023-01-05T07:56:26.326Z,13.60
2023-01-05T07:58:53.529Z,13.90
2023-01-05T08:01:21.408Z,13.98
2023-01-05T08:03:48.826Z,10.77
2023-01-05T08:06:17.701Z,12.40
2023-01-05T08:08:45.005Z,15.55
2023-01-05T08:11:15.452Z,14.02
2023-01-05T08:14:02.921Z,17.73
2023-01-05T08:16:31.567Z,6.60
2023-01-05T08:18:59.635Z,6.43
2023-01-05T08:21:27.364Z,4.63
2023-01-05T08:23:54.721Z,3.67
2023-01-05T08:26:23.746Z,4.50
2023-01-05T08:28:52.052Z,4.43
2023-01-05T08:31:19.404Z,3.85
2023-01-05T08:33:46.880Z,6.57
2023-01-05T08:36:19.751Z,7.07
2023-01-05T08:38:48.559Z,7.10
2023-01-05T08:41:23.383Z,6.10
2023-01-05T08:43:54.614Z,6.28
2023-01-05T08:46:23.226Z,24.90
2023-01-05T08:48:50.969Z,32.03
2023-01-05T08:51:18.579Z,19.77
2023-01-05T08:53:46.277Z,17.88
2023-01-05T08:56:14.267Z,19.02
2023-01-05T08:58:41.946Z,19.45
2023-01-05T09:01:13.311Z,16.25
2023-01-05T09:03:40.677Z,15.73
2023-01-05T09:06:09.397Z,12.23
2023-01-05T09:08:36.805Z,15.50
2023-01-05T09:11:18.254Z,7.05
2023-01-05T09:13:49.878Z,4.85
2023-01-05T09:16:35.530Z,5.15
2023-01-05T09:19:06.999Z,3.47
2023-01-05T09:21:34.240Z,3.63
2023-01-05T09:24:01.717Z,1.35
2023-01-05T09:26:28.957Z,1.67
2023-01-05T09:28:56.240Z,4.63
2023-01-05T09:31:23.954Z,2.25
2023-01-05T09:33:51.665Z,4.45
2023-01-05T09:36:19.905Z,3.80
2023-01-05T09:38:50.770Z,4.15
2023-01-05T09:41:17.967Z,1.38
2023-01-05T09:43:46.370Z,5.47
2023-01-05T09:46:24.490Z,4.72
2023-01-05T09:48:53.898Z,5.65
2023-01-05T09:51:21.116Z,5.88
2023-01-05T09:53:48.733Z,3.33
2023-01-05T09:56:50.349Z,2.40
2023-01-05T10:01:37.999Z,5.55
2023-01-05T10:04:08.053Z,2.35
2023-01-05T10:06:37.877Z,11.88
2023-01-05T10:09:06.754Z,4.30
2023-01-05T10:11:59.272Z,7.22
2023-01-05T10:14:45.760Z,13.98
2023-01-05T10:20:14.469Z,13.70
2023-01-05T10:22:53.378Z,6.45
2023-01-05T10:25:35.236Z,14.40
2023-01-05T10:28:21.167Z,20.98
2023-01-05T10:30:55.002Z,18.65
2023-01-05T10:33:39.589Z,9.90
2023-01-05T10:36:16.534Z,13.57
2023-01-05T10:38:50.154Z,4.65
2023-01-05T10:41:26.125Z,11.55
2023-01-05T10:44:06.200Z,10.02
2023-01-05T10:46:40.197Z,13.38
2023-01-05T10:49:10.061Z,21.17
2023-01-05T10:51:37.453Z,24.08
2023-01-05T10:54:06.255Z,22.15
2023-01-05T10:56:33.486Z,13.48
2023-01-05T10:59:08.226Z,19.77
2023-01-05T11:01:36.346Z,18.35
2023-01-05T11:07:02.998Z,13.20
2023-01-05T11:09:30.561Z,15.35
2023-01-05T11:11:59.107Z,14.80
2023-01-05T11:14:27.727Z,13.32
2023-01-05T11:16:56.336Z,11.80
2023-01-05T11:19:26.978Z,10.13
2023-01-05T11:22:01.412Z,9.95
2023-01-05T11:24:36.927Z,15.38
2023-01-05T11:27:23.398Z,18.73
2023-01-05T11:30:10.913Z,22.23
2023-01-05T11:32:38.119Z,11.55
2023-01-05T11:35:05.498Z,9.38
2023-01-05T11:37:32.731Z,8.52
2023-01-05T11:40:04.000Z,16.25
2023-01-05T11:42:33.083Z,21.63
2023-01-05T11:45:12.664Z,23.45
2023-01-05T11:47:44.292Z,18.90
2023-01-05T11:50:15.113Z,14.65
2023-01-05T11:52:43.736Z,20.23
2023-01-05T11:55:25.515Z,30.80
2023-01-05T11:57:59.671Z,11.02
2023-01-05T12:00:35.619Z,7.38
2023-01-05T12:03:21.355Z,18.38
2023-01-05T12:05:54.132Z,17.85
2023-01-05T12:11:11.749Z,18.08
2023-01-05T12:13:40.629Z,21.02
2023-01-05T12:16:11.078Z,15.52
2023-01-05T12:18:41.362Z,22.95
2023-01-05T12:21:21.373Z,16.85
2023-01-05T12:23:58.083Z,31.02
2023-01-05T12:26:37.340Z,30.38
2023-01-05T12:30:26.906Z,20.30
2023-01-05T12:35:19.030Z,32.85
2023-01-05T12:38:01.320Z,30.23
2023-01-05T12:40:37.153Z,32.60
2023-01-05T12:43:08.654Z,49.22
2023-01-05T12:45:35.855Z,42.17
2023-01-05T12:48:12.085Z,26.88
2023-01-05T12:50:45.056Z,34.25
2023-01-05T12:53:24.917Z,26.83
2023-01-05T12:56:00.790Z,36.38
2023-01-05T12:58:35.947Z,35.80
2023-01-05T13:01:05.200Z,48.92
2023-01-05T13:03:39.627Z,35.40
2023-01-05T13:06:08.604Z,28.30
2023-01-05T13:08:41.621Z,36.85
2023-01-05T13:11:15.669Z,30.00
2023-01-05T13:13:44.966Z,42.08
2023-01-05T13:16:18.467Z,37.28
2023-01-05T13:18:50.175Z,35.25
2023-01-05T13:21:18.903Z,32.95
2023-01-05T13:23:51.391Z,40.20
2023-01-05T13:26:19.935Z,30.55
2023-01-05T13:28:48.652Z,49.33
2023-01-05T13:31:34.940Z,42.92
2023-01-05T13:34:12.296Z,49.53
2023-01-05T13:36:45.589Z,54.03
2023-01-05T13:39:28.011Z,42.78
2023-01-05T13:42:01.454Z,56.85
2023-01-05T13:44:47.672Z,41.90
2023-01-05T13:47:30.743Z,40.22
2023-01-05T13:50:04.154Z,49.80
2023-01-05T13:52:50.207Z,41.88
2023-01-05T13:55:25.775Z,97.40
2023-01-05T13:57:57.968Z,40.40
2023-01-05T14:00:31.637Z,38.28
2023-01-05T14:03:07.453Z,43.47
2023-01-05T14:06:00.922Z,51.40
2023-01-05T14:08:36.394Z,45.88
2023-01-05T14:11:11.563Z,40.03
2023-01-05T14:13:44.787Z,38.80
2023-01-05T14:16:44.371Z,47.97
2023-01-05T14:19:22.813Z,35.28
2023-01-05T14:21:50.041Z,33.22
2023-01-05T14:24:48.159Z,41.65
2023-01-05T14:27:22.755Z,46.03
2023-01-05T14:32:28.335Z,46.47
2023-01-05T14:37:47.597Z,40.75
2023-01-05T14:40:16.910Z,46.42
2023-01-05T14:42:47.385Z,49.55
2023-01-05T14:45:43.885Z,46.53
2023-01-05T14:48:27.612Z,35.97
2023-01-05T14:51:08.501Z,35.95
2023-01-05T14:53:49.759Z,45.67
2023-01-05T14:56:19.373Z,40.00
2023-01-05T14:58:48.994Z,39.50
2023-01-05T15:01:19.392Z,45.00
2023-01-05T15:03:56.365Z,45.63
2023-01-05T15:06:23.539Z,33.08
2023-01-05T15:08:54.096Z,45.40
2023-01-05T15:11:33.384Z,40.38
2023-01-05T15:14:34.893Z,37.00
2023-01-05T15:17:21.035Z,41.03
2023-01-05T15:20:02.320Z,45.17
2023-01-05T15:22:48.962Z,39.55
2023-01-05T15:25:28.169Z,37.80
2023-01-05T15:27:59.361Z,48.90
2023-01-05T15:30:32.733Z,53.70
2023-01-05T15:33:20.910Z,34.83
2023-01-05T15:35:51.056Z,53.30
2023-01-05T15:38:22.333Z,38.88
2023-01-05T15:40:51.311Z,40.97
2023-01-05T15:43:18.718Z,33.67
2023-01-05T15:45:50.170Z,37.97
2023-01-05T15:48:22.336Z,34.00
2023-01-05T15:50:50.997Z,33.60
2023-01-05T15:53:30.257Z,43.03
2023-01-05T15:55:57.903Z,52.13
2023-01-05T15:58:26.372Z,37.53
2023-01-05T16:01:04.560Z,33.30
2023-01-05T16:03:33.924Z,28.40
2023-01-05T16:06:02.691Z,33.90
2023-01-05T16:08:31.329Z,47.33
2023-01-05T16:11:01.028Z,42.53
2023-01-05T16:13:41.066Z,37.67
2023-01-05T16:16:51.227Z,26.10
2023-01-05T16:19:24.939Z,31.13
2023-01-05T16:22:00.988Z,24.92
2023-01-05T16:24:31.835Z,43.13
2023-01-05T16:26:59.639Z,42.63
2023-01-05T16:29:33.077Z,26.20
2023-01-05T16:32:00.379Z,34.65
2023-01-05T16:34:31.231Z,29.63
2023-01-05T16:37:02.836Z,36.13
2023-01-05T16:39:35.687Z,40.70
2023-01-05T16:42:25.994Z,22.90
2023-01-05T16:44:54.153Z,31.50
2023-01-05T16:47:31.945Z,25.10
2023-01-05T16:49:59.228Z,35.92
2023-01-05T16:52:30.889Z,40.80
2023-01-05T16:55:27.678Z,29.05
2023-01-05T16:57:55.402Z,32.50
2023-01-05T17:00:32.645Z,34.03
2023-01-05T17:03:00.573Z,31.23
2023-01-05T17:05:36.954Z,39.58
2023-01-05T17:08:24.363Z,32.63
2023-01-05T17:10:53.237Z,15.85
2023-01-05T17:13:22.334Z,6.15
2023-01-05T17:15:50.769Z,6.25
2023-01-05T17:20:55.452Z,6.60
2023-01-05T17:23:22.777Z,8.95
2023-01-05T17:28:24.450Z,7.13
2023-01-05T17:30:52.563Z,11.05
2023-01-05T17:33:20.161Z,8.95
2023-01-05T17:38:20.440Z,20.92
2023-01-05T17:40:47.736Z,23.65
2023-01-05T17:43:14.983Z,27.52
2023-01-05T17:45:43.966Z,27.10
2023-01-05T17:50:43.931Z,26.63
2023-01-05T17:53:11.163Z,29.23
2023-01-05T17:55:38.472Z,27.88
2023-01-05T17:58:05.827Z,28.27
2023-01-05T18:00:35.036Z,18.40
2023-01-05T18:03:02.496Z,21.52
2023-01-05T18:05:29.785Z,20.10
2023-01-05T18:07:57.120Z,10.50
2023-01-05T18:10:27.036Z,29.80
2023-01-05T18:12:56.615Z,15.57
2023-01-05T18:15:24.042Z,21.13
2023-01-05T18:17:51.291Z,18.65
2023-01-05T18:20:20.192Z,17.13
2023-01-05T18:22:48.815Z,14.48
2023-01-05T18:25:16.240Z,23.13
2023-01-05T18:27:43.504Z,21.45
2023-01-05T18:30:11.250Z,19.60
2023-01-05T18:32:39.175Z,20.92
2023-01-05T18:35:09.905Z,16.85
2023-01-05T18:37:38.119Z,19.52
2023-01-05T18:40:05.783Z,26.33
2023-01-05T18:42:33.023Z,28.13
2023-01-05T18:45:08.877Z,17.02
2023-01-05T18:47:47.270Z,18.98
2023-01-05T18:50:14.530Z,29.02
2023-01-05T18:52:42.127Z,21.63
2023-01-05T18:55:10.086Z,36.92
2023-01-05T18:57:37.382Z,11.23
2023-01-05T19:00:05.237Z,15.73
2023-01-05T19:02:32.787Z,19.75
2023-01-05T19:05:00.093Z,20.83
2023-01-05T19:07:27.480Z,16.73
2023-01-05T19:09:54.764Z,10.13
2023-01-05T19:12:22.015Z,12.80
2023-01-05T19:14:49.392Z,19.25
2023-01-05T19:17:16.610Z,9.73
2023-01-05T19:19:43.856Z,25.75
2023-01-05T19:22:11.167Z,21.85
2023-01-05T19:24:38.479Z,19.60
2023-01-05T19:27:05.717Z,15.82
2023-01-05T19:29:33.036Z,15.43
2023-01-05T19:32:00.232Z,18.67
2023-01-05T19:34:27.530Z,20.63
2023-01-05T19:36:54.777Z,12.95
2023-01-05T19:39:22.126Z,17.80
2023-01-05T19:41:51.374Z,20.00
2023-01-05T19:44:19.679Z,13.32
2023-01-05T19:46:49.133Z,25.52
2023-01-05T19:49:17.845Z,18.80
2023-01-05T19:51:45.702Z,11.25
2023-01-05T19:54:13.787Z,12.85
2023-01-05T19:56:41.696Z,20.50
2023-01-05T19:59:13.894Z,12.35
2023-01-05T20:01:41.244Z,21.85
2023-01-05T20:04:08.545Z,29.55
2023-01-05T20:06:37.999Z,15.13
2023-01-05T20:09:07.406Z,20.35
2023-01-05T20:11:43.686Z,17.52
2023-01-05T20:14:16.821Z,22.50
2023-01-05T20:16:54.357Z,18.52
2023-01-05T20:19:22.536Z,9.23
2023-01-05T20:21:50.282Z,9.75
2023-01-05T20:24:19.042Z,19.10
2023-01-05T20:26:47.280Z,19.17
2023-01-05T20:29:15.299Z,13.77
2023-01-05T20:32:02.880Z,21.88
2023-01-05T20:34:32.327Z,11.73
2023-01-05T20:37:00.598Z,20.98
2023-01-05T20:39:27.936Z,16.80
2023-01-05T20:41:55.186Z,7.57
2023-01-05T20:44:24.003Z,12.63
2023-01-05T20:46:53.511Z,15.57
2023-01-05T20:49:21.358Z,28.60
2023-01-05T20:51:48.699Z,9.00
2023-01-05T20:54:16.533Z,15.43
2023-01-05T20:56:46.198Z,16.10
2023-01-05T20:59:15.592Z,15.95
2023-01-05T21:01:44.768Z,11.20
2023-01-05T21:04:12.450Z,14.18
2023-01-05T21:06:40.048Z,19.58
2023-01-05T21:09:08.350Z,9.40
2023-01-05T21:11:35.864Z,20.77
2023-01-05T21:14:03.301Z,18.50
2023-01-05T21:16:31.945Z,16.38
2023-01-05T21:19:01.332Z,18.58
2023-01-05T21:21:29.186Z,9.63
2023-01-05T21:23:56.458Z,13.35
2023-01-05T21:26:24.159Z,13.95
2023-01-05T21:28:52.498Z,16.80
2023-01-05T21:31:21.794Z,13.23
2023-01-05T21:33:49.497Z,27.23
2023-01-05T21:36:18.164Z,12.50
2023-01-05T21:39:01.218Z,17.00
2023-01-05T21:41:49.969Z,18.05
2023-01-05T21:44:17.708Z,18.83
2023-01-05T21:46:44.995Z,10.57
2023-01-05T21:49:12.756Z,12.43
2023-01-05T21:51:58.936Z,12.82
2023-01-05T21:54:45.323Z,20.25
2023-01-05T21:57:12.573Z,21.55
2023-01-05T21:59:40.066Z,10.30
2023-01-05T22:02:07.720Z,16.77
2023-01-05T22:04:35.189Z,15.43
2023-01-05T22:07:03.852Z,13.88
2023-01-05T22:09:31.089Z,12.40
2023-01-05T22:11:58.573Z,15.05
2023-01-05T22:14:25.809Z,11.30
2023-01-05T22:16:53.149Z,9.18
2023-01-05T22:19:20.362Z,9.27
2023-01-05T22:21:47.561Z,12.20
2023-01-05T22:24:15.081Z,12.60
2023-01-05T22:26:42.281Z,10.75
2023-01-05T22:29:09.611Z,8.27
2023-01-05T22:31:36.871Z,11.95
2023-01-05T22:34:05.090Z,16.80
2023-01-05T22:36:32.805Z,13.48
2023-01-05T22:39:00.755Z,11.43
2023-01-05T22:41:32.561Z,10.77
2023-01-05T22:44:02.179Z,11.20
2023-01-05T22:46:29.882Z,10.70
2023-01-05T22:48:57.563Z,11.02
2023-01-05T22:51:26.175Z,10.02
2023-01-05T22:53:53.480Z,11.57
2023-01-05T22:56:21.733Z,9.70
2023-01-05T22:58:49.138Z,16.73
2023-01-05T23:01:23.807Z,13.95
2023-01-05T23:03:51.511Z,12.60
2023-01-05T23:06:19.152Z,13.55
2023-01-05T23:08:46.717Z,10.88
2023-01-05T23:11:18.003Z,8.23
2023-01-05T23:13:45.240Z,10.40
2023-01-05T23:16:12.771Z,4.93
2023-01-05T23:18:40.748Z,9.98
2023-01-05T23:21:09.294Z,8.18
2023-01-05T23:23:36.746Z,10.68
2023-01-05T23:26:04.595Z,9.00
2023-01-05T23:28:31.889Z,15.05
2023-01-05T23:31:00.175Z,9.50
2023-01-05T23:33:32.499Z,13.85
2023-01-05T23:35:59.830Z,19.95
2023-01-05T23:38:27.425Z,15.70
2023-01-05T23:40:55.804Z,6.30
2023-01-05T23:43:24.392Z,12.38
2023-01-05T23:45:52.235Z,12.30
2023-01-05T23:48:19.519Z,15.15
2023-01-05T23:50:48.363Z,13.18
2023-01-05T23:53:16.465Z,12.15
2023-01-05T23:55:43.678Z,19.77
2023-01-05T23:58:11.003Z,13.55
